Wednesday, October 18, 2017, 3:41 AM EDT
Back to Local

KPIT, Greater Pittsburgh International

Location: Coraopolis, PA, United States Lat: 40.483
Local Time: 3:41 AM EDT ( 7:41 GMT) Lon: -80.233
Time Zone: US/Eastern Elev: 1204 ft

Show me the last for .
Show Decoded

2017-10-18 02:51 METAR KPIT 180651Z 00000KT 10SM CLR 09/04 A3030 RMK AO2 SLP269 T00890039 =
2017-10-18 01:51 METAR KPIT 180551Z 00000KT 10SM CLR 09/04 A3031 RMK AO2 SLP272 T00890039 10133
                 20078 51006 =
2017-10-18 00:51 METAR KPIT 180451Z 18003KT 10SM CLR 08/04 A3030 RMK AO2 SLP270 T00830044
                 401720017 =
2017-10-17 23:51 METAR KPIT 180351Z 00000KT 10SM CLR 10/04 A3030 RMK AO2 SLP269 T01000044 =
2017-10-17 22:51 METAR KPIT 180251Z 21003KT 10SM CLR 10/04 A3029 RMK AO2 SLP266 T01000044 53009 =
2017-10-17 21:51 METAR KPIT 180151Z 20003KT 10SM CLR 12/04 A3027 RMK AO2 SLP263 T01170044 =
2017-10-17 20:51 METAR KPIT 180051Z 20004KT 10SM CLR 12/04 A3026 RMK AO2 SLP259 T01220044 =
2017-10-17 19:51 METAR KPIT 172351Z 21004KT 10SM CLR 13/04 A3026 RMK AO2 SLP260 T01330039 10172
                 20133 53002 =
2017-10-17 18:51 METAR KPIT 172251Z 22004KT 10SM FEW250 15/03 A3025 RMK AO2 SLP255 T01500033 =
2017-10-17 17:51 METAR KPIT 172151Z 23009KT 10SM FEW250 16/03 A3024 RMK AO2 SLP252 T01610028 =
2017-10-17 16:51 METAR KPIT 172051Z 21007G14KT 10SM FEW250 17/03 A3025 RMK AO2 SLP255 T01670028
                 56015 =
2017-10-17 15:51 METAR KPIT 171951Z 23007KT 200V260 10SM FEW250 17/03 A3026 RMK AO2 SLP258
                 T01670028 =
2017-10-17 14:51 METAR KPIT 171851Z 22008KT 190V260 10SM FEW040 17/03 A3028 RMK AO2 SLP263
                 T01670033 =
2017-10-17 13:51 METAR KPIT 171751Z 20009G15KT 170V240 10SM FEW035 15/03 A3030 RMK AO2 SLP271
                 T01500028 10156 20022 58018 =
2017-10-17 12:51 METAR KPIT 171651Z 23011KT 10SM FEW035 14/02 A3032 RMK SLP279 T01440022 =
2017-10-17 11:51 METAR KPIT 171551Z COR 27007KT 10SM CLR 13/03 A3034 RMK SLP286 T01330028 =
2017-10-17 07:51 METAR KPIT 171151Z 00000KT 10SM CLR 02/01 A3034 RMK AO2 SLP289 T00220011 10039
                 20017 51010 =
2017-10-17 06:51 METAR KPIT 171051Z 00000KT 10SM CLR 02/01 A3034 RMK AO2 SLP286 T00220011 =
2017-10-17 05:51 METAR KPIT 170951Z 00000KT 10SM CLR 02/01 A3033 RMK AO2 SLP284 T00220011 =
2017-10-17 04:51 METAR KPIT 170851Z 00000KT 10SM CLR 03/01 A3031 RMK AO2 SLP277 T00280011 51006 =
2017-10-17 03:51 METAR KPIT 170751Z 00000KT 10SM CLR 03/01 A3031 RMK AO2 SLP275 T00280011 =

Support USWX by starting your Amazon purchase here.